Time;durP1;ratioP1;P1;durP2;ratioP2;P2;SDS_P1;SDS_P2;PMS_P1;PMS_P2;Temp;Humidity;BMP_temperature;BMP_pressure;BME280_temperature;BME280_humidity;BME280_pressure;Samples;Min_cycle;Max_cycle;Signal;HPM_P1;HPM_P2
2022/01/28 00:02:34;;;;;;;19.17;9.68;;;;;;;;;;6008658;29;20050;-78
2022/01/28 00:05:39;;;;;;;19.75;9.90;;;;;;;;;;6008090;29;20065;-78
2022/01/28 00:08:44;;;;;;;18.42;10.18;;;;;;;;;;6007375;29;20054;-78
2022/01/28 00:11:49;;;;;;;19.38;9.63;;;;;;;;;;6009037;29;20129;-77
2022/01/28 00:15:01;;;;;;;19.60;11.20;;;;;;;;;;6006766;29;20118;-77
2022/01/28 00:38:44;;;;;;;21.20;11.60;;;;;;;;;;6006287;29;20049;-79
2022/01/28 00:41:51;;;;;;;23.35;11.65;;;;;;;;;;6007070;29;20061;-79
2022/01/28 00:44:56;;;;;;;23.20;11.48;;;;;;;;;;6007890;29;20133;-78
2022/01/28 00:48:00;;;;;;;21.00;10.93;;;;;;;;;;6007255;29;20037;-81
2022/01/28 00:51:03;;;;;;;24.42;11.80;;;;;;;;;;6006869;29;20486;-82
2022/01/28 00:54:08;;;;;;;21.70;10.73;;;;;;;;;;6007191;29;20054;-82
2022/01/28 00:57:12;;;;;;;22.33;11.30;;;;;;;;;;6006262;29;20061;-82
2022/01/28 01:00:16;;;;;;;22.52;11.20;;;;;;;;;;6007583;29;20038;-82
2022/01/28 01:03:21;;;;;;;21.05;10.93;;;;;;;;;;6005343;29;20092;-81
2022/01/28 01:06:25;;;;;;;21.42;10.35;;;;;;;;;;6007720;29;20046;-84
2022/01/28 01:09:28;;;;;;;21.00;10.35;;;;;;;;;;6004777;29;20109;-84
2022/01/28 01:12:36;;;;;;;20.70;11.05;;;;;;;;;;6004616;29;20050;-82
2022/01/28 01:15:43;;;;;;;19.80;10.20;;;;;;;;;;6005488;29;20447;-83
2022/01/28 01:18:51;;;;;;;19.80;9.93;;;;;;;;;;6006348;29;20042;-83
2022/01/28 01:21:58;;;;;;;18.50;9.70;;;;;;;;;;6004728;29;20076;-82
2022/01/28 01:25:04;;;;;;;17.52;9.18;;;;;;;;;;6002962;29;20450;-80
2022/01/28 01:28:09;;;;;;;18.35;10.13;;;;;;;;;;6004380;29;20054;-80
2022/01/28 01:31:17;;;;;;;21.38;9.15;;;;;;;;;;6003910;29;20046;-79
2022/01/28 01:34:22;;;;;;;18.38;8.80;;;;;;;;;;6005641;29;20057;-80
2022/01/28 01:37:26;;;;;;;18.80;9.90;;;;;;;;;;6005703;29;20042;-80
2022/01/28 01:40:34;;;;;;;15.93;9.05;;;;;;;;;;6006196;29;20118;-79
2022/01/28 01:43:52;;;;;;;15.65;8.10;;;;;;;;;;6005311;29;20066;-79
2022/01/28 01:52:00;;;;;;;14.90;7.18;;;;;;;;;;6004920;29;20133;-79
2022/01/28 01:53:55;;;;;;;15.35;7.63;;;;;;;;;;6006323;29;20074;-80
2022/01/28 01:56:58;;;;;;;13.50;7.75;;;;;;;;;;6006318;29;20551;-77
2022/01/28 02:00:04;;;;;;;14.18;7.40;;;;;;;;;;6006255;29;20056;-79
2022/01/28 02:03:07;;;;;;;15.18;7.85;;;;;;;;;;6004590;29;20473;-78
2022/01/28 02:06:11;;;;;;;13.50;6.63;;;;;;;;;;6006051;29;20050;-77
2022/01/28 02:09:14;;;;;;;15.02;8.00;;;;;;;;;;6005745;29;20038;-78
2022/01/28 02:12:17;;;;;;;12.35;6.53;;;;;;;;;;6005644;29;20049;-79
2022/01/28 02:15:22;;;;;;;12.77;6.78;;;;;;;;;;6003711;29;20046;-79
2022/01/28 02:18:26;;;;;;;12.02;6.65;;;;;;;;;;6004446;29;20072;-76
2022/01/28 02:21:34;;;;;;;14.07;7.30;;;;;;;;;;6003298;29;20054;-78
2022/01/28 02:24:42;;;;;;;12.65;6.80;;;;;;;;;;6004351;29;20132;-78
2022/01/28 02:27:45;;;;;;;10.65;5.95;;;;;;;;;;6004862;29;20057;-77
2022/01/28 02:30:48;;;;;;;9.43;5.85;;;;;;;;;;6005732;29;20060;-76
2022/01/28 02:33:54;;;;;;;10.10;5.25;;;;;;;;;;6005963;29;20053;-77
2022/01/28 02:36:57;;;;;;;;;;;;;;;;;;6006295;29;20136;-77
2022/01/28 02:40:02;;;;;;;8.20;4.40;;;;;;;;;;6002218;29;19924;-77
2022/01/28 02:43:27;;;;;;;8.55;4.82;;;;;;;;;;6003164;29;20053;-78
2022/01/28 02:46:30;;;;;;;5.95;4.05;;;;;;;;;;6002670;29;20048;-79
2022/01/28 02:49:36;;;;;;;7.82;4.50;;;;;;;;;;6003216;29;20045;-78
2022/01/28 02:52:50;;;;;;;5.85;3.70;;;;;;;;;;6002961;29;20042;-78
2022/01/28 02:55:59;;;;;;;5.85;3.75;;;;;;;;;;6005556;29;20078;-78
2022/01/28 02:59:08;;;;;;;6.90;3.97;;;;;;;;;;6005702;29;20102;-77
2022/01/28 03:02:11;;;;;;;5.85;3.72;;;;;;;;;;6004271;29;20061;-79
2022/01/28 03:08:34;;;;;;;8.30;4.53;;;;;;;;;;6004541;29;20054;-87
2022/01/28 03:12:00;;;;;;;7.40;4.32;;;;;;;;;;6004532;29;20057;-85
2022/01/28 03:15:05;;;;;;;7.25;4.13;;;;;;;;;;6004550;29;20498;-85
2022/01/28 03:18:12;;;;;;;8.52;4.28;;;;;;;;;;6005490;29;20102;-85
2022/01/28 03:21:23;;;;;;;6.88;4.10;;;;;;;;;;6005851;29;20727;-84
2022/01/28 03:24:28;;;;;;;6.72;4.20;;;;;;;;;;5989226;29;20054;-81
2022/01/28 03:27:47;;;;;;;5.90;3.50;;;;;;;;;;6007151;29;20120;-77
2022/01/28 03:30:54;;;;;;;4.70;3.45;;;;;;;;;;5995017;29;20054;-76
2022/01/28 03:33:57;;;;;;;6.00;3.70;;;;;;;;;;5993026;29;20058;-76
2022/01/28 03:37:00;;;;;;;4.70;3.10;;;;;;;;;;6009658;29;20057;-77
2022/01/28 03:40:06;;;;;;;4.18;2.90;;;;;;;;;;6008245;29;20066;-81
2022/01/28 03:43:09;;;;;;;;;;;;;;;;;;6024022;29;20049;-79
2022/01/28 03:46:16;;;;;;;4.60;3.00;;;;;;;;;;6007970;29;19932;-79
2022/01/28 03:49:20;;;;;;;4.13;3.03;;;;;;;;;;6008089;29;20056;-80
2022/01/28 03:52:23;;;;;;;4.05;2.90;;;;;;;;;;6008911;29;20042;-79
2022/01/28 03:55:26;;;;;;;5.80;3.30;;;;;;;;;;6009056;29;20050;-81
2022/01/28 03:58:29;;;;;;;4.43;2.92;;;;;;;;;;6007814;29;20050;-79
2022/01/28 04:01:38;;;;;;;4.20;2.92;;;;;;;;;;6007459;29;20170;-84
2022/01/28 04:11:31;;;;;;;4.32;3.05;;;;;;;;;;6008576;29;20725;-77
2022/01/28 04:14:43;;;;;;;4.95;3.20;;;;;;;;;;6007120;29;20386;-77
2022/01/28 04:17:48;;;;;;;4.47;2.63;;;;;;;;;;6008336;29;20105;-76
2022/01/28 04:20:52;;;;;;;5.82;3.38;;;;;;;;;;6007222;29;20057;-77
2022/01/28 04:23:57;;;;;;;;;;;;;;;;;;6009161;29;20070;-76
2022/01/28 04:27:00;;;;;;;6.18;3.17;;;;;;;;;;6006660;29;19928;-76
2022/01/28 04:30:07;;;;;;;5.80;3.85;;;;;;;;;;6008108;29;20057;-77
2022/01/28 04:33:12;;;;;;;4.47;2.72;;;;;;;;;;6007176;29;20042;-76
2022/01/28 04:36:16;;;;;;;4.13;3.13;;;;;;;;;;6006571;29;20042;-76
2022/01/28 04:39:29;;;;;;;5.43;3.05;;;;;;;;;;6008082;29;20119;-78
2022/01/28 04:45:58;;;;;;;4.00;3.03;;;;;;;;;;6006583;29;20494;-79
2022/01/28 04:49:09;;;;;;;3.58;2.78;;;;;;;;;;6006561;29;20058;-78
2022/01/28 04:52:39;;;;;;;4.72;2.80;;;;;;;;;;6006307;29;20077;-78
2022/01/28 04:59:17;;;;;;;5.40;2.90;;;;;;;;;;6006471;29;20049;-76
2022/01/28 05:02:40;;;;;;;4.28;2.70;;;;;;;;;;6007238;29;20079;-75
2022/01/28 05:10:01;;;;;;;4.18;2.90;;;;;;;;;;6006715;29;20122;-78
2022/01/28 05:13:28;;;;;;;2.50;2.00;;;;;;;;;;6005929;29;20050;-78
2022/01/28 05:26:39;;;;;;;2.33;1.83;;;;;;;;;;6005866;29;20053;-80
2022/01/28 05:29:42;;;;;;;3.92;1.88;;;;;;;;;;6005957;29;20429;-82
2022/01/28 05:32:46;;;;;;;2.20;1.63;;;;;;;;;;6006535;29;20505;-81
2022/01/28 05:35:49;;;;;;;2.00;1.40;;;;;;;;;;5990683;29;20140;-78
2022/01/28 05:38:56;;;;;;;2.43;1.83;;;;;;;;;;6005794;29;20410;-80
2022/01/28 05:41:59;;;;;;;2.70;1.50;;;;;;;;;;6005360;29;20046;-77
2022/01/28 05:45:02;;;;;;;1.60;1.45;;;;;;;;;;6006416;29;20060;-77
2022/01/28 05:48:05;;;;;;;2.20;1.35;;;;;;;;;;5990246;29;20129;-78
2022/01/28 05:51:08;;;;;;;2.05;1.27;;;;;;;;;;6006133;29;20050;-85
2022/01/28 05:54:15;;;;;;;2.05;1.50;;;;;;;;;;6004973;29;20061;-89
2022/01/28 05:57:21;;;;;;;2.85;1.67;;;;;;;;;;5990665;29;20081;-82
2022/01/28 06:00:25;;;;;;;1.90;1.55;;;;;;;;;;6006626;29;20117;-79
2022/01/28 06:03:29;;;;;;;1.42;1.33;;;;;;;;;;5990203;29;20069;-81
2022/01/28 06:06:33;;;;;;;3.58;1.50;;;;;;;;;;5990249;29;20053;-81
2022/01/28 06:09:38;;;;;;;3.00;2.08;;;;;;;;;;6004883;29;20053;-84
2022/01/28 06:12:42;;;;;;;2.40;1.67;;;;;;;;;;6005026;29;20516;-79
2022/01/28 06:15:46;;;;;;;2.45;1.60;;;;;;;;;;6005050;29;20054;-83
2022/01/28 06:18:49;;;;;;;2.80;1.70;;;;;;;;;;6005702;29;20064;-78
2022/01/28 06:21:55;;;;;;;1.70;1.40;;;;;;;;;;6005139;29;20049;-83
2022/01/28 06:25:00;;;;;;;1.70;1.50;;;;;;;;;;5989741;29;20049;-78
2022/01/28 06:28:05;;;;;;;1.80;1.50;;;;;;;;;;6005225;29;20053;-82
2022/01/28 06:31:10;;;;;;;;;;;;;;;;;;6004948;29;20054;-89
2022/01/28 06:34:14;;;;;;;2.97;1.73;;;;;;;;;;6004105;29;19925;-85
2022/01/28 06:37:17;;;;;;;6.68;3.33;;;;;;;;;;6003430;29;20126;-84
2022/01/28 06:40:22;;;;;;;3.55;1.95;;;;;;;;;;5987485;29;20049;-85
2022/01/28 06:43:26;;;;;;;2.40;1.60;;;;;;;;;;6003673;29;20045;-85
2022/01/28 06:46:30;;;;;;;6.97;1.80;;;;;;;;;;5988967;29;20342;-87
2022/01/28 06:49:33;;;;;;;2.38;1.70;;;;;;;;;;6005664;29;20053;-84
2022/01/28 06:52:38;;;;;;;2.13;1.60;;;;;;;;;;5991281;29;20054;-84
2022/01/28 06:55:47;;;;;;;2.25;1.52;;;;;;;;;;6005820;29;20494;-80
2022/01/28 06:58:54;;;;;;;3.92;1.80;;;;;;;;;;6004693;29;20459;-81
2022/01/28 07:01:58;;;;;;;2.22;1.52;;;;;;;;;;6006535;29;20061;-79
2022/01/28 07:05:01;;;;;;;2.15;1.30;;;;;;;;;;6010247;29;20057;-79
2022/01/28 07:08:07;;;;;;;2.17;1.60;;;;;;;;;;6008553;29;20053;-81
2022/01/28 07:11:12;;;;;;;2.22;1.30;;;;;;;;;;6010580;29;20057;-80
2022/01/28 07:14:15;;;;;;;2.00;1.38;;;;;;;;;;6008959;29;20057;-79
2022/01/28 07:17:21;;;;;;;;;;;;;;;;;;6009626;29;20413;-79
2022/01/28 07:20:24;;;;;;;2.38;1.50;;;;;;;;;;6008680;29;19928;-80
2022/01/28 07:23:28;;;;;;;2.55;1.40;;;;;;;;;;6008640;29;20042;-80
2022/01/28 07:26:33;;;;;;;1.63;1.15;;;;;;;;;;6009090;29;20048;-80
2022/01/28 07:29:37;;;;;;;4.05;1.45;;;;;;;;;;5993447;29;20098;-81
2022/01/28 07:32:41;;;;;;;2.55;1.00;;;;;;;;;;6008913;29;20070;-81
2022/01/28 07:35:48;;;;;;;2.15;1.20;;;;;;;;;;6008736;29;20050;-81
2022/01/28 07:38:51;;;;;;;1.50;1.35;;;;;;;;;;6008020;29;20056;-81
2022/01/28 07:41:56;;;;;;;1.95;1.20;;;;;;;;;;6008139;29;20057;-81
2022/01/28 07:45:00;;;;;;;2.30;1.08;;;;;;;;;;6009739;29;20057;-80
2022/01/28 07:48:04;;;;;;;1.83;1.20;;;;;;;;;;6009486;29;20102;-82
2022/01/28 07:51:07;;;;;;;4.95;1.40;;;;;;;;;;6009618;29;20050;-82
2022/01/28 07:54:13;;;;;;;3.15;1.60;;;;;;;;;;5978503;29;20058;-80
2022/01/28 07:57:18;;;;;;;3.65;1.10;;;;;;;;;;5993046;29;20441;-82
2022/01/28 08:00:26;;;;;;;2.45;1.15;;;;;;;;;;6007869;29;20131;-83
2022/01/28 08:03:34;;;;;;;3.30;1.00;;;;;;;;;;6008119;29;20145;-86
2022/01/28 08:09:55;;;;;;;1.90;0.95;;;;;;;;;;6008419;29;20050;-84
2022/01/28 08:13:03;;;;;;;1.60;1.10;;;;;;;;;;6007550;29;20054;-84
2022/01/28 08:16:06;;;;;;;1.80;0.90;;;;;;;;;;5992853;29;20050;-85
2022/01/28 08:19:17;;;;;;;5.60;0.88;;;;;;;;;;6007014;29;20045;-83
2022/01/28 08:22:21;;;;;;;1.23;0.77;;;;;;;;;;5993812;29;20054;-84
2022/01/28 08:25:27;;;;;;;3.53;1.50;;;;;;;;;;6007550;29;20056;-84
2022/01/28 08:28:35;;;;;;;4.32;1.00;;;;;;;;;;5992697;29;20128;-85
2022/01/28 08:31:40;;;;;;;3.40;0.90;;;;;;;;;;5992448;29;20518;-85
2022/01/28 08:34:43;;;;;;;2.45;1.00;;;;;;;;;;6007509;29;20046;-85
2022/01/28 08:37:47;;;;;;;2.13;0.70;;;;;;;;;;5992248;29;20050;-86
2022/01/28 08:40:50;;;;;;;2.92;0.70;;;;;;;;;;5991866;29;20061;-86
2022/01/28 08:43:55;;;;;;;1.50;0.70;;;;;;;;;;6006979;29;20551;-86
2022/01/28 08:46:59;;;;;;;1.40;0.65;;;;;;;;;;6006989;29;20050;-85
2022/01/28 08:50:03;;;;;;;3.00;0.70;;;;;;;;;;6007721;29;20049;-85
2022/01/28 08:53:08;;;;;;;3.03;0.73;;;;;;;;;;6006249;29;20056;-84
2022/01/28 08:56:12;;;;;;;1.70;0.80;;;;;;;;;;6006449;29;20053;-81
2022/01/28 08:59:17;;;;;;;;;;;;;;;;;;6007431;29;20064;-82
2022/01/28 09:02:22;;;;;;;2.92;0.65;;;;;;;;;;6007960;29;19928;-79
2022/01/28 09:05:28;;;;;;;1.27;0.55;;;;;;;;;;6006995;29;20065;-77
2022/01/28 09:08:33;;;;;;;2.17;0.60;;;;;;;;;;6007595;29;20053;-77
2022/01/28 09:11:54;;;;;;;4.70;1.00;;;;;;;;;;6006581;29;20516;-77
2022/01/28 09:14:58;;;;;;;2.65;0.73;;;;;;;;;;6006009;29;20058;-80
2022/01/28 09:18:23;;;;;;;3.08;0.68;;;;;;;;;;6005742;29;20186;-77
2022/01/28 09:21:26;;;;;;;2.90;1.00;;;;;;;;;;6006670;29;20050;-77
2022/01/28 09:24:30;;;;;;;1.30;0.90;;;;;;;;;;6006648;29;20053;-77
2022/01/28 09:27:33;;;;;;;1.45;0.75;;;;;;;;;;6005250;29;20368;-77
2022/01/28 09:30:36;;;;;;;3.20;0.77;;;;;;;;;;6006729;29;20057;-78
2022/01/28 09:33:42;;;;;;;4.55;0.73;;;;;;;;;;6005610;29;20458;-77
2022/01/28 09:36:44;;;;;;;1.58;0.60;;;;;;;;;;6006742;29;20136;-75
2022/01/28 09:39:49;;;;;;;1.95;0.80;;;;;;;;;;6006511;29;20447;-81
2022/01/28 09:43:13;;;;;;;3.45;1.02;;;;;;;;;;6007177;29;20133;-83
2022/01/28 09:46:18;;;;;;;1.50;0.52;;;;;;;;;;6005641;29;20053;-78
2022/01/28 09:49:23;;;;;;;3.72;0.70;;;;;;;;;;6004749;29;20129;-77
2022/01/28 09:52:26;;;;;;;0.60;0.60;;;;;;;;;;6005054;29;20528;-76
2022/01/28 09:55:30;;;;;;;2.65;0.50;;;;;;;;;;6006277;29;20242;-77
2022/01/28 09:58:36;;;;;;;2.75;0.60;;;;;;;;;;6006512;29;20050;-77
2022/01/28 10:01:49;;;;;;;5.00;0.77;;;;;;;;;;6005963;29;20049;-86
2022/01/28 10:04:57;;;;;;;3.97;0.88;;;;;;;;;;6006326;29;20411;-80
2022/01/28 10:08:08;;;;;;;2.45;0.60;;;;;;;;;;5990718;29;20401;-78
2022/01/28 10:11:16;;;;;;;1.65;0.57;;;;;;;;;;6006133;29;20504;-80
2022/01/28 10:14:22;;;;;;;5.03;1.10;;;;;;;;;;6005001;29;20533;-80
2022/01/28 10:17:26;;;;;;;4.45;0.70;;;;;;;;;;6005528;29;20284;-79
2022/01/28 10:20:35;;;;;;;7.53;0.93;;;;;;;;;;5990681;29;20054;-79
2022/01/28 10:23:38;;;;;;;4.25;0.90;;;;;;;;;;6004244;29;20490;-78
2022/01/28 10:26:43;;;;;;;6.70;1.15;;;;;;;;;;6006061;29;20061;-77
2022/01/28 10:29:47;;;;;;;1.85;0.65;;;;;;;;;;6004709;29;20049;-81
2022/01/28 10:33:07;;;;;;;10.77;1.10;;;;;;;;;;6004032;29;20049;-83
2022/01/28 10:36:12;;;;;;;2.83;0.80;;;;;;;;;;6006417;29;20050;-78
2022/01/28 10:39:16;;;;;;;5.10;1.15;;;;;;;;;;6012118;29;20110;-76
2022/01/28 10:42:21;;;;;;;2.00;0.90;;;;;;;;;;6013346;29;20046;-77
2022/01/28 10:45:28;;;;;;;2.80;0.68;;;;;;;;;;6011341;29;20648;-78
2022/01/28 10:48:32;;;;;;;7.38;1.30;;;;;;;;;;6013183;29;20061;-78
2022/01/28 10:51:43;;;;;;;2.40;0.68;;;;;;;;;;5997494;29;20205;-78
2022/01/28 10:54:57;;;;;;;2.50;0.77;;;;;;;;;;6012790;29;20048;-76
2022/01/28 10:58:01;;;;;;;1.98;0.60;;;;;;;;;;6011593;29;20042;-76
2022/01/28 11:01:05;;;;;;;1.27;0.60;;;;;;;;;;6011580;29;20416;-77
2022/01/28 11:04:10;;;;;;;2.08;0.60;;;;;;;;;;6011977;29;20074;-76
2022/01/28 11:07:15;;;;;;;2.92;0.70;;;;;;;;;;6012412;29;20046;-76
2022/01/28 11:10:18;;;;;;;3.22;0.70;;;;;;;;;;6012779;29;20128;-77
2022/01/28 11:13:22;;;;;;;3.83;0.82;;;;;;;;;;6012836;29;20050;-76
2022/01/28 11:16:26;;;;;;;5.60;0.88;;;;;;;;;;6011440;29;20057;-80
2022/01/28 11:19:33;;;;;;;3.97;1.73;;;;;;;;;;6011775;29;20481;-83
2022/01/28 11:22:43;;;;;;;2.33;1.17;;;;;;;;;;6011820;29;20173;-82
2022/01/28 11:25:53;;;;;;;6.60;1.00;;;;;;;;;;6011976;29;20050;-79
2022/01/28 11:29:02;;;;;;;5.20;0.52;;;;;;;;;;6012360;29;20541;-80
2022/01/28 11:32:14;;;;;;;2.00;0.68;;;;;;;;;;6009441;29;20421;-78
2022/01/28 11:35:20;;;;;;;1.95;0.68;;;;;;;;;;6009649;29;20073;-79
2022/01/28 11:38:42;;;;;;;5.63;1.90;;;;;;;;;;6011170;29;20277;-78
2022/01/28 11:42:04;;;;;;;1.60;0.77;;;;;;;;;;6011014;29;20049;-79
2022/01/28 11:45:08;;;;;;;2.40;0.98;;;;;;;;;;6011627;29;20443;-80
2022/01/28 11:48:11;;;;;;;3.22;0.80;;;;;;;;;;6010598;29;20561;-79
2022/01/28 11:51:17;;;;;;;;;;;;;;;;;;6009125;29;20054;-78
2022/01/28 11:54:22;;;;;;;8.02;0.95;;;;;;;;;;6007536;29;19924;-79
2022/01/28 11:57:29;;;;;;;0.93;0.45;;;;;;;;;;6007395;29;20058;-78
2022/01/28 12:00:34;;;;;;;2.30;0.82;;;;;;;;;;6007761;29;20058;-79
2022/01/28 12:03:38;;;;;;;5.72;1.17;;;;;;;;;;6006613;29;20058;-78
2022/01/28 12:06:42;;;;;;;3.22;0.90;;;;;;;;;;6007478;29;20053;-78
2022/01/28 12:09:50;;;;;;;2.13;0.75;;;;;;;;;;6005653;29;20067;-77
2022/01/28 12:13:00;;;;;;;3.60;0.80;;;;;;;;;;6006083;29;20050;-79
2022/01/28 12:16:10;;;;;;;3.80;0.80;;;;;;;;;;6005188;29;20107;-78
2022/01/28 12:19:17;;;;;;;5.10;1.10;;;;;;;;;;6006579;29;20046;-77
2022/01/28 12:22:23;;;;;;;5.20;1.40;;;;;;;;;;5991558;29;20052;-79
2022/01/28 12:25:45;;;;;;;3.10;0.98;;;;;;;;;;6007241;29;20182;-77
2022/01/28 12:29:06;;;;;;;4.75;1.10;;;;;;;;;;6008583;29;20508;-77
2022/01/28 12:32:40;;;;;;;3.25;0.90;;;;;;;;;;6006510;29;20054;-78
2022/01/28 12:35:56;;;;;;;;;;;;;;;;;;6005865;29;20070;-80
2022/01/28 12:39:36;;;;;;;4.32;0.90;;;;;;;;;;6003224;29;20327;-79
2022/01/28 12:42:40;;;;;;;4.13;0.90;;;;;;;;;;6004898;29;20050;-76
2022/01/28 12:45:56;;;;;;;4.95;1.05;;;;;;;;;;6004028;29;20087;-78
2022/01/28 12:49:02;;;;;;;2.95;0.93;;;;;;;;;;6005711;29;20050;-79
2022/01/28 12:52:07;;;;;;;4.85;1.10;;;;;;;;;;5989871;29;20054;-78
2022/01/28 12:55:12;;;;;;;7.43;1.45;;;;;;;;;;6004284;29;20054;-78
2022/01/28 12:58:15;;;;;;;2.85;1.13;;;;;;;;;;6004857;29;20441;-78
2022/01/28 13:01:21;;;;;;;3.55;1.30;;;;;;;;;;6006509;29;20049;-78
2022/01/28 13:04:36;;;;;;;6.28;1.10;;;;;;;;;;6006800;29;20092;-78
2022/01/28 13:11:05;;;;;;;1.70;0.75;;;;;;;;;;6007246;29;20058;-78
2022/01/28 13:14:11;;;;;;;5.80;1.50;;;;;;;;;;6006322;29;20049;-78
2022/01/28 13:17:21;;;;;;;6.70;1.23;;;;;;;;;;6006457;29;20065;-79
2022/01/28 13:20:25;;;;;;;3.90;0.98;;;;;;;;;;6006064;29;20106;-79
2022/01/28 13:23:33;;;;;;;6.07;1.23;;;;;;;;;;6007117;29;20054;-80
2022/01/28 13:26:37;;;;;;;3.47;1.02;;;;;;;;;;6005159;29;20050;-79
2022/01/28 13:29:45;;;;;;;4.75;1.00;;;;;;;;;;6005854;29;20054;-78
2022/01/28 13:32:51;;;;;;;2.97;0.80;;;;;;;;;;6006919;29;20498;-83
2022/01/28 13:35:56;;;;;;;8.10;1.30;;;;;;;;;;6005524;29;20050;-82
2022/01/28 13:39:14;;;;;;;6.47;1.67;;;;;;;;;;6005004;29;20049;-76
2022/01/28 13:42:22;;;;;;;4.60;0.98;;;;;;;;;;6005252;29;20516;-78
2022/01/28 13:45:29;;;;;;;5.88;1.08;;;;;;;;;;6006580;29;20060;-77
2022/01/28 13:48:38;;;;;;;3.70;1.05;;;;;;;;;;6006173;29;20065;-79
2022/01/28 13:51:41;;;;;;;2.63;1.10;;;;;;;;;;6004999;29;20459;-79
2022/01/28 13:54:45;;;;;;;4.78;1.23;;;;;;;;;;6005025;29;20042;-81
2022/01/28 13:57:48;;;;;;;4.93;1.08;;;;;;;;;;6003846;29;20057;-83
2022/01/28 14:00:54;;;;;;;4.72;1.20;;;;;;;;;;6004781;29;20053;-85
2022/01/28 14:04:07;;;;;;;5.30;1.20;;;;;;;;;;6006272;29;20066;-81
2022/01/28 14:07:11;;;;;;;7.65;1.30;;;;;;;;;;6002266;29;20068;-81
2022/01/28 14:10:15;;;;;;;;;;;;;;;;;;6004343;29;20558;-80
2022/01/28 14:13:19;;;;;;;6.65;1.48;;;;;;;;;;6003012;29;20474;-81
2022/01/28 14:16:26;;;;;;;4.22;0.88;;;;;;;;;;5987403;29;20061;-80
2022/01/28 14:19:32;;;;;;;4.28;1.20;;;;;;;;;;6002563;29;20091;-80
2022/01/28 14:22:35;;;;;;;5.40;1.52;;;;;;;;;;6003668;29;20046;-80
2022/01/28 14:25:39;;;;;;;5.07;1.45;;;;;;;;;;6004429;29;20421;-79
2022/01/28 14:29:09;;;;;;;6.78;1.67;;;;;;;;;;6005002;29;20189;-80
2022/01/28 14:32:17;;;;;;;3.78;2.00;;;;;;;;;;6004508;29;20049;-82
2022/01/28 14:35:23;;;;;;;4.60;1.40;;;;;;;;;;6005367;29;20057;-81
2022/01/28 14:38:27;;;;;;;2.05;1.20;;;;;;;;;;6006250;29;20322;-87
2022/01/28 14:41:30;;;;;;;4.43;1.20;;;;;;;;;;5990305;29;20053;-81
2022/01/28 14:44:35;;;;;;;5.35;1.20;;;;;;;;;;6003727;29;20049;-80
2022/01/28 14:47:39;;;;;;;5.88;1.35;;;;;;;;;;6004529;29;20058;-79
2022/01/28 14:50:43;;;;;;;2.63;1.10;;;;;;;;;;6005757;29;20509;-82
2022/01/28 14:53:46;;;;;;;5.03;1.67;;;;;;;;;;6005626;29;20050;-81
2022/01/28 14:56:49;;;;;;;4.00;1.27;;;;;;;;;;6004410;29;20057;-79
2022/01/28 14:59:53;;;;;;;4.40;1.00;;;;;;;;;;6003901;29;20049;-79
2022/01/28 15:02:56;;;;;;;3.63;1.00;;;;;;;;;;6005425;29;20046;-81
2022/01/28 15:06:01;;;;;;;5.45;2.45;;;;;;;;;;6005009;29;20061;-84
2022/01/28 15:09:04;;;;;;;4.53;1.30;;;;;;;;;;6005161;29;20053;-84
2022/01/28 15:12:08;;;;;;;4.25;1.30;;;;;;;;;;6004552;29;20413;-86
2022/01/28 15:15:11;;;;;;;3.45;1.20;;;;;;;;;;6003678;29;20600;-84
2022/01/28 15:18:16;;;;;;;3.53;1.55;;;;;;;;;;6004355;29;20046;-82
2022/01/28 15:21:22;;;;;;;4.22;1.17;;;;;;;;;;6003822;29;20060;-85
2022/01/28 15:24:26;;;;;;;3.03;1.30;;;;;;;;;;6006866;29;20046;-84
2022/01/28 15:27:31;;;;;;;3.85;1.48;;;;;;;;;;6009134;29;20080;-80
2022/01/28 15:34:25;;;;;;;3.85;1.23;;;;;;;;;;6009846;29;20046;-76
2022/01/28 15:37:29;;;;;;;8.55;2.15;;;;;;;;;;6007701;29;20054;-77
2022/01/28 15:40:35;;;;;;;5.38;1.08;;;;;;;;;;6008499;29;20056;-80
2022/01/28 15:43:39;;;;;;;4.47;1.60;;;;;;;;;;6008060;29;20171;-77
2022/01/28 15:46:53;;;;;;;6.03;1.63;;;;;;;;;;6008035;29;20083;-79
2022/01/28 15:49:56;;;;;;;4.50;1.08;;;;;;;;;;5992714;29;20053;-77
2022/01/28 15:53:01;;;;;;;3.72;1.60;;;;;;;;;;6008889;29;20461;-76
2022/01/28 15:56:04;;;;;;;6.15;1.33;;;;;;;;;;6008771;29;20061;-77
2022/01/28 15:59:07;;;;;;;5.15;1.55;;;;;;;;;;6007450;29;20140;-77
2022/01/28 16:02:13;;;;;;;6.90;2.00;;;;;;;;;;6008442;29;20054;-79
2022/01/28 16:05:16;;;;;;;4.78;1.50;;;;;;;;;;5991497;29;20425;-78
2022/01/28 16:08:21;;;;;;;3.40;1.17;;;;;;;;;;6008968;29;20068;-77
2022/01/28 16:11:30;;;;;;;5.45;1.27;;;;;;;;;;6007584;29;20195;-77
2022/01/28 16:14:35;;;;;;;5.05;1.42;;;;;;;;;;6008763;29;20372;-77
2022/01/28 16:17:38;;;;;;;3.42;1.35;;;;;;;;;;6006386;29;20053;-76
2022/01/28 16:20:43;;;;;;;;;;;;;;;;;;6007400;29;20451;-78
2022/01/28 16:23:48;;;;;;;2.65;1.30;;;;;;;;;;6006768;29;20021;-77
2022/01/28 16:26:53;;;;;;;6.63;1.70;;;;;;;;;;6008094;29;20490;-79
2022/01/28 16:29:56;;;;;;;4.35;1.42;;;;;;;;;;6007420;29;20049;-79
2022/01/28 16:33:00;;;;;;;5.45;1.70;;;;;;;;;;6007754;29;20522;-79
2022/01/28 16:36:05;;;;;;;4.20;1.50;;;;;;;;;;6007940;29;20050;-78
2022/01/28 16:39:12;;;;;;;5.90;1.73;;;;;;;;;;6006906;29;20053;-79
2022/01/28 16:42:23;;;;;;;5.35;1.60;;;;;;;;;;6007050;29;20064;-81
2022/01/28 16:45:28;;;;;;;6.85;1.83;;;;;;;;;;6007804;29;20383;-79
2022/01/28 16:48:31;;;;;;;3.17;1.63;;;;;;;;;;6006493;29;20054;-77
2022/01/28 16:51:36;;;;;;;6.13;1.60;;;;;;;;;;6007044;29;20054;-78
2022/01/28 16:54:41;;;;;;;2.65;1.50;;;;;;;;;;6005477;29;20125;-77
2022/01/28 16:57:46;;;;;;;3.38;1.40;;;;;;;;;;6005235;29;20114;-77
2022/01/28 17:00:49;;;;;;;5.57;1.63;;;;;;;;;;6006630;29;20136;-78
2022/01/28 17:03:53;;;;;;;6.97;1.55;;;;;;;;;;6005850;29;20058;-77
2022/01/28 17:06:56;;;;;;;5.18;1.63;;;;;;;;;;5991430;29;20113;-77
2022/01/28 17:10:07;;;;;;;5.65;1.77;;;;;;;;;;6005220;29;20065;-84
2022/01/28 17:13:11;;;;;;;7.38;1.73;;;;;;;;;;6002600;29;20183;-80
2022/01/28 17:16:16;;;;;;;9.30;1.95;;;;;;;;;;6002509;29;20058;-80
2022/01/28 17:19:19;;;;;;;2.45;1.48;;;;;;;;;;6004397;29;20111;-82
2022/01/28 17:22:23;;;;;;;6.50;1.67;;;;;;;;;;6003415;29;20054;-79
2022/01/28 17:25:28;;;;;;;5.20;1.95;;;;;;;;;;6004078;29;20053;-79
2022/01/28 17:28:35;;;;;;;5.05;1.58;;;;;;;;;;6006256;29;20118;-78
2022/01/28 17:31:38;;;;;;;7.03;1.83;;;;;;;;;;5990731;29;20042;-79
2022/01/28 17:34:42;;;;;;;9.68;2.20;;;;;;;;;;6007144;29;20050;-79
2022/01/28 17:37:46;;;;;;;6.72;1.83;;;;;;;;;;6005250;29;20077;-83
2022/01/28 17:40:53;;;;;;;9.77;1.67;;;;;;;;;;6005543;29;20081;-81
2022/01/28 17:43:57;;;;;;;4.83;1.67;;;;;;;;;;6006635;29;20042;-80
2022/01/28 17:47:01;;;;;;;5.65;1.85;;;;;;;;;;6004132;29;20054;-79
2022/01/28 17:50:06;;;;;;;8.20;2.10;;;;;;;;;;5990479;29;20128;-77
2022/01/28 17:53:16;;;;;;;7.35;1.83;;;;;;;;;;5989935;29;20065;-79
2022/01/28 17:56:21;;;;;;;8.93;1.95;;;;;;;;;;6004983;29;20435;-78
2022/01/28 17:59:24;;;;;;;7.47;1.85;;;;;;;;;;6004767;29;20513;-77
2022/01/28 18:02:30;;;;;;;5.40;1.80;;;;;;;;;;6006136;29;20614;-77
2022/01/28 18:05:34;;;;;;;6.10;2.13;;;;;;;;;;6005344;29;20509;-79
2022/01/28 18:08:39;;;;;;;12.23;4.05;;;;;;;;;;6005576;29;20054;-78
2022/01/28 18:11:44;;;;;;;6.38;1.92;;;;;;;;;;6005201;29;20417;-78
2022/01/28 18:14:49;;;;;;;8.70;2.20;;;;;;;;;;6006202;29;20045;-80
2022/01/28 18:17:53;;;;;;;7.80;1.63;;;;;;;;;;5989453;29;20061;-79
2022/01/28 18:20:56;;;;;;;8.80;1.98;;;;;;;;;;6004667;29;20050;-78
2022/01/28 18:24:00;;;;;;;11.57;2.22;;;;;;;;;;6005771;29;20349;-79
2022/01/28 18:27:14;;;;;;;9.95;2.10;;;;;;;;;;6003317;29;20045;-83
2022/01/28 18:30:19;;;;;;;7.00;2.08;;;;;;;;;;5989546;29;20060;-81
2022/01/28 18:33:22;;;;;;;6.13;1.92;;;;;;;;;;6005129;29;20137;-84
2022/01/28 18:36:26;;;;;;;6.70;2.33;;;;;;;;;;6005150;29;20049;-83
2022/01/28 18:39:31;;;;;;;7.80;2.88;;;;;;;;;;6004461;29;20493;-81
2022/01/28 18:42:43;;;;;;;6.28;2.05;;;;;;;;;;5974402;29;20050;-82
2022/01/28 18:45:47;;;;;;;8.35;2.22;;;;;;;;;;6003555;29;20046;-79
2022/01/28 18:48:50;;;;;;;8.75;2.60;;;;;;;;;;6006049;29;20061;-79
2022/01/28 18:51:53;;;;;;;8.77;2.58;;;;;;;;;;6002884;29;20126;-80
2022/01/28 18:54:57;;;;;;;9.95;2.72;;;;;;;;;;6001710;29;20046;-79
2022/01/28 18:58:01;;;;;;;7.88;2.35;;;;;;;;;;6004060;29;20132;-81
2022/01/28 19:01:05;;;;;;;12.33;2.50;;;;;;;;;;6006677;29;20053;-81
2022/01/28 19:04:08;;;;;;;8.52;2.70;;;;;;;;;;6006054;29;20062;-79
2022/01/28 19:07:12;;;;;;;8.80;2.58;;;;;;;;;;6008075;29;20077;-81
2022/01/28 19:10:17;;;;;;;9.85;2.85;;;;;;;;;;6006402;29;20489;-80
2022/01/28 19:13:21;;;;;;;9.82;2.00;;;;;;;;;;6007716;29;20046;-81
2022/01/28 19:16:25;;;;;;;9.32;2.38;;;;;;;;;;6008416;29;20045;-80
2022/01/28 19:19:29;;;;;;;8.02;2.20;;;;;;;;;;6008990;29;20334;-78
2022/01/28 19:22:32;;;;;;;9.80;2.33;;;;;;;;;;6006638;29;20053;-80
2022/01/28 19:25:36;;;;;;;10.32;2.38;;;;;;;;;;6005698;29;20072;-79
2022/01/28 19:28:41;;;;;;;5.82;2.42;;;;;;;;;;6007043;29;20058;-80
2022/01/28 19:31:44;;;;;;;7.73;1.90;;;;;;;;;;6007123;29;20061;-80
2022/01/28 19:34:50;;;;;;;10.15;2.53;;;;;;;;;;6005335;29;20364;-79
2022/01/28 19:37:54;;;;;;;7.05;1.73;;;;;;;;;;6006156;29;20054;-78
2022/01/28 19:40:57;;;;;;;11.00;2.47;;;;;;;;;;6008317;29;20110;-80
2022/01/28 19:44:02;;;;;;;8.13;2.50;;;;;;;;;;6009513;29;20045;-82